sensor_id;sensor_type;location;lat;lon;timestamp;P1;durP1;ratioP1;P2;durP2;ratioP2
579;SDS011;276;48.392;9.950;2022-11-04T00:01:39;6.63;;;6.03;;
579;SDS011;276;48.392;9.950;2022-11-04T00:04:09;8.37;;;7.57;;
579;SDS011;276;48.392;9.950;2022-11-04T00:06:39;7.23;;;6.53;;
579;SDS011;276;48.392;9.950;2022-11-04T00:09:10;7.63;;;6.63;;
579;SDS011;276;48.392;9.950;2022-11-04T00:11:40;6.27;;;5.67;;
579;SDS011;276;48.392;9.950;2022-11-04T00:14:24;6.50;;;5.83;;
579;SDS011;276;48.392;9.950;2022-11-04T00:16:49;6.63;;;6.03;;
579;SDS011;276;48.392;9.950;2022-11-04T00:19:33;6.10;;;5.60;;
579;SDS011;276;48.392;9.950;2022-11-04T00:22:17;5.83;;;5.33;;
579;SDS011;276;48.392;9.950;2022-11-04T00:25:04;6.50;;;5.90;;
579;SDS011;276;48.392;9.950;2022-11-04T00:31:01;7.43;;;6.10;;
579;SDS011;276;48.392;9.950;2022-11-04T00:33:49;7.17;;;6.50;;
579;SDS011;276;48.392;9.950;2022-11-04T00:36:16;8.97;;;7.43;;
579;SDS011;276;48.392;9.950;2022-11-04T00:38:46;7.27;;;6.57;;
579;SDS011;276;48.392;9.950;2022-11-04T00:41:12;8.67;;;7.10;;
579;SDS011;276;48.392;9.950;2022-11-04T00:43:53;8.40;;;7.53;;
579;SDS011;276;48.392;9.950;2022-11-04T00:46:19;8.53;;;7.00;;
579;SDS011;276;48.392;9.950;2022-11-04T00:48:47;8.97;;;7.67;;
579;SDS011;276;48.392;9.950;2022-11-04T00:51:15;7.30;;;6.60;;
579;SDS011;276;48.392;9.950;2022-11-04T00:53:45;6.90;;;6.30;;
579;SDS011;276;48.392;9.950;2022-11-04T00:56:11;6.33;;;5.83;;
579;SDS011;276;48.392;9.950;2022-11-04T00:58:36;7.40;;;6.60;;
579;SDS011;276;48.392;9.950;2022-11-04T01:01:08;5.50;;;5.00;;
579;SDS011;276;48.392;9.950;2022-11-04T01:03:41;5.73;;;5.23;;
579;SDS011;276;48.392;9.950;2022-11-04T01:06:12;6.90;;;5.20;;
579;SDS011;276;48.392;9.950;2022-11-04T01:08:37;4.70;;;4.30;;
579;SDS011;276;48.392;9.950;2022-11-04T01:11:04;5.87;;;5.27;;
579;SDS011;276;48.392;9.950;2022-11-04T01:13:31;4.60;;;4.23;;
579;SDS011;276;48.392;9.950;2022-11-04T01:16:00;5.30;;;4.07;;
579;SDS011;276;48.392;9.950;2022-11-04T01:18:27;3.90;;;3.47;;
579;SDS011;276;48.392;9.950;2022-11-04T01:21:02;3.67;;;3.37;;
579;SDS011;276;48.392;9.950;2022-11-04T01:23:29;2.93;;;2.73;;
579;SDS011;276;48.392;9.950;2022-11-04T01:25:58;3.40;;;3.10;;
579;SDS011;276;48.392;9.950;2022-11-04T01:28:26;3.47;;;2.93;;
579;SDS011;276;48.392;9.950;2022-11-04T01:30:52;3.43;;;3.13;;
579;SDS011;276;48.392;9.950;2022-11-04T01:33:22;3.57;;;3.27;;
579;SDS011;276;48.392;9.950;2022-11-04T01:35:49;3.03;;;2.83;;
579;SDS011;276;48.392;9.950;2022-11-04T01:38:16;3.70;;;3.40;;
579;SDS011;276;48.392;9.950;2022-11-04T01:40:45;2.97;;;2.73;;
579;SDS011;276;48.392;9.950;2022-11-04T01:43:13;3.00;;;2.80;;
579;SDS011;276;48.392;9.950;2022-11-04T01:45:43;3.43;;;3.10;;
579;SDS011;276;48.392;9.950;2022-11-04T01:48:13;2.73;;;2.53;;
579;SDS011;276;48.392;9.950;2022-11-04T01:50:49;3.37;;;2.93;;
579;SDS011;276;48.392;9.950;2022-11-04T01:53:17;3.20;;;2.90;;
579;SDS011;276;48.392;9.950;2022-11-04T01:55:51;2.63;;;2.43;;
579;SDS011;276;48.392;9.950;2022-11-04T01:58:25;4.07;;;2.53;;
579;SDS011;276;48.392;9.950;2022-11-04T02:00:53;3.63;;;3.33;;
579;SDS011;276;48.392;9.950;2022-11-04T02:05:58;3.00;;;2.60;;
579;SDS011;276;48.392;9.950;2022-11-04T02:08:27;2.97;;;2.67;;
579;SDS011;276;48.392;9.950;2022-11-04T02:10:59;3.20;;;3.00;;
579;SDS011;276;48.392;9.950;2022-11-04T02:13:29;2.13;;;2.03;;
579;SDS011;276;48.392;9.950;2022-11-04T02:18:47;2.90;;;2.70;;
579;SDS011;276;48.392;9.950;2022-11-04T02:43:44;3.23;;;2.50;;
579;SDS011;276;48.392;9.950;2022-11-04T02:46:19;3.03;;;2.83;;
579;SDS011;276;48.392;9.950;2022-11-04T02:48:56;2.90;;;2.70;;
579;SDS011;276;48.392;9.950;2022-11-04T02:51:39;3.03;;;2.83;;
579;SDS011;276;48.392;9.950;2022-11-04T02:57:24;3.23;;;2.93;;
579;SDS011;276;48.392;9.950;2022-11-04T02:59:54;2.40;;;2.20;;
579;SDS011;276;48.392;9.950;2022-11-04T03:02:34;3.60;;;3.30;;
579;SDS011;276;48.392;9.950;2022-11-04T03:05:12;3.27;;;2.97;;
579;SDS011;276;48.392;9.950;2022-11-04T03:07:40;2.43;;;2.23;;
579;SDS011;276;48.392;9.950;2022-11-04T03:10:54;2.80;;;2.40;;
579;SDS011;276;48.392;9.950;2022-11-04T03:13:00;2.43;;;2.23;;
579;SDS011;276;48.392;9.950;2022-11-04T03:15:33;3.03;;;2.63;;
579;SDS011;276;48.392;9.950;2022-11-04T03:21:06;2.80;;;2.60;;
579;SDS011;276;48.392;9.950;2022-11-04T03:23:35;2.93;;;2.20;;
579;SDS011;276;48.392;9.950;2022-11-04T03:26:12;3.20;;;2.70;;
579;SDS011;276;48.392;9.950;2022-11-04T03:31:42;2.30;;;1.97;;
579;SDS011;276;48.392;9.950;2022-11-04T03:34:12;2.30;;;2.10;;
579;SDS011;276;48.392;9.950;2022-11-04T03:36:38;2.60;;;2.20;;
579;SDS011;276;48.392;9.950;2022-11-04T03:39:03;2.40;;;2.20;;
579;SDS011;276;48.392;9.950;2022-11-04T03:41:34;2.27;;;2.13;;
579;SDS011;276;48.392;9.950;2022-11-04T03:44:08;1.73;;;1.63;;
579;SDS011;276;48.392;9.950;2022-11-04T03:46:37;1.60;;;1.50;;
579;SDS011;276;48.392;9.950;2022-11-04T03:49:04;2.30;;;2.10;;
579;SDS011;276;48.392;9.950;2022-11-04T03:51:30;3.83;;;1.97;;
579;SDS011;276;48.392;9.950;2022-11-04T03:53:56;2.37;;;1.83;;
579;SDS011;276;48.392;9.950;2022-11-04T03:56:26;3.73;;;2.37;;
579;SDS011;276;48.392;9.950;2022-11-04T04:02:14;2.90;;;1.77;;
579;SDS011;276;48.392;9.950;2022-11-04T04:07:30;2.13;;;1.83;;
579;SDS011;276;48.392;9.950;2022-11-04T04:13:24;2.37;;;1.13;;
579;SDS011;276;48.392;9.950;2022-11-04T04:18:57;3.07;;;1.30;;
579;SDS011;276;48.392;9.950;2022-11-04T04:21:28;1.60;;;1.20;;
579;SDS011;276;48.392;9.950;2022-11-04T04:23:57;2.33;;;1.33;;
579;SDS011;276;48.392;9.950;2022-11-04T04:26:45;3.13;;;0.90;;
579;SDS011;276;48.392;9.950;2022-11-04T04:29:31;2.27;;;1.30;;
579;SDS011;276;48.392;9.950;2022-11-04T04:31:58;2.17;;;1.40;;
579;SDS011;276;48.392;9.950;2022-11-04T04:34:29;2.13;;;0.80;;
579;SDS011;276;48.392;9.950;2022-11-04T04:37:04;4.63;;;1.00;;
579;SDS011;276;48.392;9.950;2022-11-04T04:39:54;0.80;;;0.80;;
579;SDS011;276;48.392;9.950;2022-11-04T04:42:42;1.17;;;1.03;;
579;SDS011;276;48.392;9.950;2022-11-04T04:45:29;0.80;;;0.60;;
579;SDS011;276;48.392;9.950;2022-11-04T04:47:56;1.03;;;1.03;;
579;SDS011;276;48.392;9.950;2022-11-04T04:50:21;1.60;;;0.60;;
579;SDS011;276;48.392;9.950;2022-11-04T04:52:52;0.50;;;0.50;;
579;SDS011;276;48.392;9.950;2022-11-04T04:55:20;1.90;;;0.80;;
579;SDS011;276;48.392;9.950;2022-11-04T04:57:48;0.90;;;0.70;;
579;SDS011;276;48.392;9.950;2022-11-04T05:00:17;1.03;;;0.70;;
579;SDS011;276;48.392;9.950;2022-11-04T05:02:44;0.87;;;0.60;;
579;SDS011;276;48.392;9.950;2022-11-04T05:05:11;2.00;;;0.70;;
579;SDS011;276;48.392;9.950;2022-11-04T05:07:39;1.27;;;0.80;;
579;SDS011;276;48.392;9.950;2022-11-04T05:10:05;0.70;;;0.70;;
579;SDS011;276;48.392;9.950;2022-11-04T05:12:35;0.70;;;0.67;;
579;SDS011;276;48.392;9.950;2022-11-04T05:15:22;0.80;;;0.73;;
579;SDS011;276;48.392;9.950;2022-11-04T05:17:55;2.63;;;0.70;;
579;SDS011;276;48.392;9.950;2022-11-04T05:20:22;1.60;;;0.80;;
579;SDS011;276;48.392;9.950;2022-11-04T05:22:48;0.50;;;0.50;;
579;SDS011;276;48.392;9.950;2022-11-04T05:25:14;0.70;;;0.50;;
579;SDS011;276;48.392;9.950;2022-11-04T05:27:40;1.37;;;0.93;;
579;SDS011;276;48.392;9.950;2022-11-04T05:30:05;1.77;;;0.77;;
579;SDS011;276;48.392;9.950;2022-11-04T05:32:32;1.80;;;0.90;;
579;SDS011;276;48.392;9.950;2022-11-04T05:34:57;2.70;;;1.17;;
579;SDS011;276;48.392;9.950;2022-11-04T05:37:23;1.70;;;1.17;;
579;SDS011;276;48.392;9.950;2022-11-04T05:39:49;5.47;;;2.03;;
579;SDS011;276;48.392;9.950;2022-11-04T05:42:15;3.83;;;2.00;;
579;SDS011;276;48.392;9.950;2022-11-04T05:44:41;4.50;;;2.30;;
579;SDS011;276;48.392;9.950;2022-11-04T05:47:06;11.03;;;4.30;;
579;SDS011;276;48.392;9.950;2022-11-04T05:49:32;5.40;;;2.50;;
579;SDS011;276;48.392;9.950;2022-11-04T05:51:58;8.27;;;2.20;;
579;SDS011;276;48.392;9.950;2022-11-04T05:54:26;5.07;;;1.80;;
579;SDS011;276;48.392;9.950;2022-11-04T05:56:53;2.87;;;1.67;;
579;SDS011;276;48.392;9.950;2022-11-04T05:59:21;2.73;;;1.90;;
579;SDS011;276;48.392;9.950;2022-11-04T06:01:49;2.60;;;1.60;;
579;SDS011;276;48.392;9.950;2022-11-04T06:04:16;2.70;;;1.60;;
579;SDS011;276;48.392;9.950;2022-11-04T06:06:43;2.77;;;1.57;;
579;SDS011;276;48.392;9.950;2022-11-04T06:09:09;1.30;;;1.07;;
579;SDS011;276;48.392;9.950;2022-11-04T06:11:37;5.53;;;1.57;;
579;SDS011;276;48.392;9.950;2022-11-04T06:14:03;3.80;;;1.73;;
579;SDS011;276;48.392;9.950;2022-11-04T06:16:29;5.33;;;2.60;;
579;SDS011;276;48.392;9.950;2022-11-04T06:18:57;1.90;;;1.30;;
579;SDS011;276;48.392;9.950;2022-11-04T06:21:26;2.77;;;1.27;;
579;SDS011;276;48.392;9.950;2022-11-04T06:23:53;1.47;;;1.17;;
579;SDS011;276;48.392;9.950;2022-11-04T06:26:26;1.53;;;1.43;;
579;SDS011;276;48.392;9.950;2022-11-04T06:28:52;2.23;;;1.80;;
579;SDS011;276;48.392;9.950;2022-11-04T06:31:18;2.83;;;1.90;;
579;SDS011;276;48.392;9.950;2022-11-04T06:33:47;1.93;;;1.50;;
579;SDS011;276;48.392;9.950;2022-11-04T06:36:13;3.50;;;3.20;;
579;SDS011;276;48.392;9.950;2022-11-04T06:38:40;7.17;;;6.40;;
579;SDS011;276;48.392;9.950;2022-11-04T06:41:07;5.90;;;5.30;;
579;SDS011;276;48.392;9.950;2022-11-04T06:43:37;4.03;;;3.63;;
579;SDS011;276;48.392;9.950;2022-11-04T06:46:03;2.40;;;2.20;;
579;SDS011;276;48.392;9.950;2022-11-04T06:48:30;2.63;;;2.43;;
579;SDS011;276;48.392;9.950;2022-11-04T06:50:56;2.03;;;1.70;;
579;SDS011;276;48.392;9.950;2022-11-04T06:53:23;4.40;;;2.20;;
579;SDS011;276;48.392;9.950;2022-11-04T06:55:50;1.80;;;1.70;;
579;SDS011;276;48.392;9.950;2022-11-04T06:58:20;1.70;;;1.40;;
579;SDS011;276;48.392;9.950;2022-11-04T07:00:50;1.70;;;1.60;;
579;SDS011;276;48.392;9.950;2022-11-04T07:03:17;2.37;;;2.17;;
579;SDS011;276;48.392;9.950;2022-11-04T07:05:43;2.23;;;2.03;;
579;SDS011;276;48.392;9.950;2022-11-04T07:08:08;3.30;;;2.23;;
579;SDS011;276;48.392;9.950;2022-11-04T07:10:39;4.60;;;4.30;;
579;SDS011;276;48.392;9.950;2022-11-04T07:13:05;3.00;;;2.80;;
579;SDS011;276;48.392;9.950;2022-11-04T07:15:30;2.70;;;2.50;;
579;SDS011;276;48.392;9.950;2022-11-04T07:17:57;5.73;;;3.27;;
579;SDS011;276;48.392;9.950;2022-11-04T07:20:23;3.37;;;3.10;;
579;SDS011;276;48.392;9.950;2022-11-04T07:22:49;3.77;;;3.30;;
579;SDS011;276;48.392;9.950;2022-11-04T07:25:15;4.40;;;4.10;;
579;SDS011;276;48.392;9.950;2022-11-04T07:27:40;2.73;;;2.50;;
579;SDS011;276;48.392;9.950;2022-11-04T07:30:08;2.57;;;2.37;;
579;SDS011;276;48.392;9.950;2022-11-04T07:32:34;2.37;;;2.07;;
579;SDS011;276;48.392;9.950;2022-11-04T07:35:02;2.67;;;2.43;;
579;SDS011;276;48.392;9.950;2022-11-04T07:37:28;1.93;;;1.83;;
579;SDS011;276;48.392;9.950;2022-11-04T07:39:54;2.60;;;2.30;;
579;SDS011;276;48.392;9.950;2022-11-04T07:42:22;3.33;;;2.60;;
579;SDS011;276;48.392;9.950;2022-11-04T07:44:47;2.00;;;1.90;;
579;SDS011;276;48.392;9.950;2022-11-04T07:47:13;3.23;;;2.50;;
579;SDS011;276;48.392;9.950;2022-11-04T07:49:39;2.20;;;1.83;;
579;SDS011;276;48.392;9.950;2022-11-04T07:52:04;1.97;;;1.80;;
579;SDS011;276;48.392;9.950;2022-11-04T07:54:30;2.33;;;1.70;;
579;SDS011;276;48.392;9.950;2022-11-04T07:56:56;2.37;;;2.23;;
579;SDS011;276;48.392;9.950;2022-11-04T07:59:22;2.53;;;1.60;;
579;SDS011;276;48.392;9.950;2022-11-04T08:01:50;1.83;;;1.50;;
579;SDS011;276;48.392;9.950;2022-11-04T08:04:15;2.10;;;1.90;;
579;SDS011;276;48.392;9.950;2022-11-04T08:06:44;1.87;;;1.77;;
579;SDS011;276;48.392;9.950;2022-11-04T08:09:12;2.33;;;1.93;;
579;SDS011;276;48.392;9.950;2022-11-04T08:11:40;2.00;;;1.80;;
579;SDS011;276;48.392;9.950;2022-11-04T08:14:05;3.47;;;2.17;;
579;SDS011;276;48.392;9.950;2022-11-04T08:16:31;3.80;;;3.03;;
579;SDS011;276;48.392;9.950;2022-11-04T08:18:57;2.20;;;2.00;;
579;SDS011;276;48.392;9.950;2022-11-04T08:21:27;1.80;;;1.70;;
579;SDS011;276;48.392;9.950;2022-11-04T08:23:53;2.43;;;1.80;;
579;SDS011;276;48.392;9.950;2022-11-04T08:26:19;2.23;;;1.83;;
579;SDS011;276;48.392;9.950;2022-11-04T08:28:47;1.97;;;1.87;;
579;SDS011;276;48.392;9.950;2022-11-04T08:33:44;2.07;;;1.93;;
579;SDS011;276;48.392;9.950;2022-11-04T08:36:16;2.13;;;2.03;;
579;SDS011;276;48.392;9.950;2022-11-04T08:38:43;2.23;;;1.77;;
579;SDS011;276;48.392;9.950;2022-11-04T08:41:10;3.03;;;2.77;;
579;SDS011;276;48.392;9.950;2022-11-04T08:43:36;6.93;;;2.40;;
579;SDS011;276;48.392;9.950;2022-11-04T08:46:03;2.17;;;2.07;;
579;SDS011;276;48.392;9.950;2022-11-04T08:48:30;2.57;;;2.37;;
579;SDS011;276;48.392;9.950;2022-11-04T08:50:57;2.97;;;2.03;;
579;SDS011;276;48.392;9.950;2022-11-04T08:53:23;1.87;;;1.70;;
579;SDS011;276;48.392;9.950;2022-11-04T08:55:49;2.07;;;1.90;;
579;SDS011;276;48.392;9.950;2022-11-04T08:58:15;2.53;;;2.33;;
579;SDS011;276;48.392;9.950;2022-11-04T09:00:44;2.20;;;1.83;;
579;SDS011;276;48.392;9.950;2022-11-04T09:03:11;2.40;;;2.20;;
579;SDS011;276;48.392;9.950;2022-11-04T09:05:38;3.00;;;2.00;;
579;SDS011;276;48.392;9.950;2022-11-04T09:08:15;2.50;;;2.30;;
579;SDS011;276;48.392;9.950;2022-11-04T09:10:42;2.27;;;2.10;;
579;SDS011;276;48.392;9.950;2022-11-04T09:13:10;2.40;;;2.30;;
579;SDS011;276;48.392;9.950;2022-11-04T09:15:37;1.97;;;1.87;;
579;SDS011;276;48.392;9.950;2022-11-04T09:18:03;1.70;;;1.60;;
579;SDS011;276;48.392;9.950;2022-11-04T09:20:29;1.60;;;1.50;;
579;SDS011;276;48.392;9.950;2022-11-04T09:22:55;2.10;;;2.00;;
579;SDS011;276;48.392;9.950;2022-11-04T09:25:21;4.60;;;1.53;;
579;SDS011;276;48.392;9.950;2022-11-04T09:27:47;2.10;;;2.00;;
579;SDS011;276;48.392;9.950;2022-11-04T09:30:12;1.70;;;1.60;;
579;SDS011;276;48.392;9.950;2022-11-04T09:32:38;2.07;;;1.80;;
579;SDS011;276;48.392;9.950;2022-11-04T09:35:04;2.50;;;2.20;;
579;SDS011;276;48.392;9.950;2022-11-04T09:37:30;1.83;;;1.60;;
579;SDS011;276;48.392;9.950;2022-11-04T09:39:56;1.90;;;1.80;;
579;SDS011;276;48.392;9.950;2022-11-04T09:42:36;5.10;;;1.90;;
579;SDS011;276;48.392;9.950;2022-11-04T09:45:16;2.50;;;2.30;;
579;SDS011;276;48.392;9.950;2022-11-04T09:47:44;3.10;;;1.97;;
579;SDS011;276;48.392;9.950;2022-11-04T09:50:17;1.73;;;1.63;;
579;SDS011;276;48.392;9.950;2022-11-04T09:52:53;2.63;;;2.07;;
579;SDS011;276;48.392;9.950;2022-11-04T09:55:28;1.80;;;1.70;;
579;SDS011;276;48.392;9.950;2022-11-04T09:58:17;2.73;;;1.87;;
579;SDS011;276;48.392;9.950;2022-11-04T10:00:45;3.60;;;2.97;;
579;SDS011;276;48.392;9.950;2022-11-04T10:03:22;3.23;;;2.93;;
579;SDS011;276;48.392;9.950;2022-11-04T10:06:34;6.33;;;5.83;;
579;SDS011;276;48.392;9.950;2022-11-04T10:14:33;6.07;;;5.70;;
579;SDS011;276;48.392;9.950;2022-11-04T10:17:42;5.97;;;5.57;;
579;SDS011;276;48.392;9.950;2022-11-04T10:25:30;4.63;;;4.23;;
579;SDS011;276;48.392;9.950;2022-11-04T10:28:01;4.10;;;3.80;;
579;SDS011;276;48.392;9.950;2022-11-04T10:30:30;2.80;;;2.60;;
579;SDS011;276;48.392;9.950;2022-11-04T10:35:41;2.30;;;2.10;;
579;SDS011;276;48.392;9.950;2022-11-04T10:38:54;2.10;;;1.70;;
579;SDS011;276;48.392;9.950;2022-11-04T10:40:57;3.40;;;1.50;;
579;SDS011;276;48.392;9.950;2022-11-04T10:43:31;2.43;;;1.93;;
579;SDS011;276;48.392;9.950;2022-11-04T10:49:34;2.47;;;1.80;;
579;SDS011;276;48.392;9.950;2022-11-04T10:52:21;3.23;;;1.83;;
579;SDS011;276;48.392;9.950;2022-11-04T10:54:50;6.03;;;1.83;;
579;SDS011;276;48.392;9.950;2022-11-04T10:57:23;1.63;;;1.40;;
579;SDS011;276;48.392;9.950;2022-11-04T11:07:42;2.37;;;2.17;;
579;SDS011;276;48.392;9.950;2022-11-04T11:10:18;3.73;;;1.87;;
579;SDS011;276;48.392;9.950;2022-11-04T11:12:49;2.43;;;1.83;;
579;SDS011;276;48.392;9.950;2022-11-04T11:15:25;2.63;;;2.33;;
579;SDS011;276;48.392;9.950;2022-11-04T11:18:18;2.40;;;1.50;;
579;SDS011;276;48.392;9.950;2022-11-04T11:20:48;3.60;;;1.87;;
579;SDS011;276;48.392;9.950;2022-11-04T11:26:28;1.33;;;1.23;;
579;SDS011;276;48.392;9.950;2022-11-04T11:28:55;2.00;;;1.67;;
579;SDS011;276;48.392;9.950;2022-11-04T11:31:34;2.90;;;1.70;;
579;SDS011;276;48.392;9.950;2022-11-04T11:34:03;1.53;;;1.17;;
579;SDS011;276;48.392;9.950;2022-11-04T11:36:35;2.87;;;1.40;;
579;SDS011;276;48.392;9.950;2022-11-04T11:41:59;3.93;;;1.83;;
579;SDS011;276;48.392;9.950;2022-11-04T11:52:37;1.77;;;1.53;;
579;SDS011;276;48.392;9.950;2022-11-04T12:00:59;2.30;;;1.20;;
579;SDS011;276;48.392;9.950;2022-11-04T12:14:05;2.50;;;2.00;;
579;SDS011;276;48.392;9.950;2022-11-04T12:22:57;2.13;;;1.20;;
579;SDS011;276;48.392;9.950;2022-11-04T12:25:23;5.20;;;1.20;;
579;SDS011;276;48.392;9.950;2022-11-04T12:30:38;2.27;;;1.07;;
579;SDS011;276;48.392;9.950;2022-11-04T12:33:20;1.50;;;1.40;;
579;SDS011;276;48.392;9.950;2022-11-04T12:36:13;1.43;;;1.00;;
579;SDS011;276;48.392;9.950;2022-11-04T12:38:48;1.07;;;0.97;;
579;SDS011;276;48.392;9.950;2022-11-04T12:41:20;2.30;;;1.47;;
579;SDS011;276;48.392;9.950;2022-11-04T12:49:40;1.93;;;0.90;;
579;SDS011;276;48.392;9.950;2022-11-04T12:55:20;1.27;;;1.17;;
579;SDS011;276;48.392;9.950;2022-11-04T13:05:27;1.80;;;1.17;;
579;SDS011;276;48.392;9.950;2022-11-04T13:10:54;1.47;;;1.37;;
579;SDS011;276;48.392;9.950;2022-11-04T13:16:26;2.80;;;1.80;;
579;SDS011;276;48.392;9.950;2022-11-04T13:18:53;2.60;;;1.77;;
579;SDS011;276;48.392;9.950;2022-11-04T13:21:22;2.13;;;1.57;;
579;SDS011;276;48.392;9.950;2022-11-04T13:23:56;3.43;;;1.23;;
579;SDS011;276;48.392;9.950;2022-11-04T13:26:24;2.40;;;1.40;;
579;SDS011;276;48.392;9.950;2022-11-04T13:28:55;1.80;;;1.47;;
579;SDS011;276;48.392;9.950;2022-11-04T13:36:51;3.03;;;1.77;;
579;SDS011;276;48.392;9.950;2022-11-04T13:39:35;1.80;;;1.60;;
579;SDS011;276;48.392;9.950;2022-11-04T13:45:15;2.50;;;1.80;;
579;SDS011;276;48.392;9.950;2022-11-04T13:47:46;2.97;;;2.10;;
579;SDS011;276;48.392;9.950;2022-11-04T13:53:00;5.13;;;2.43;;
579;SDS011;276;48.392;9.950;2022-11-04T13:55:30;2.43;;;1.90;;
579;SDS011;276;48.392;9.950;2022-11-04T13:57:57;6.73;;;2.10;;
579;SDS011;276;48.392;9.950;2022-11-04T14:00:31;2.40;;;1.80;;
579;SDS011;276;48.392;9.950;2022-11-04T14:08:24;2.53;;;1.87;;
579;SDS011;276;48.392;9.950;2022-11-04T14:16:05;1.70;;;1.60;;
579;SDS011;276;48.392;9.950;2022-11-04T14:23:45;3.47;;;1.90;;
579;SDS011;276;48.392;9.950;2022-11-04T14:26:23;2.93;;;2.37;;
579;SDS011;276;48.392;9.950;2022-11-04T14:29:11;3.40;;;1.63;;
579;SDS011;276;48.392;9.950;2022-11-04T14:31:40;1.53;;;1.40;;
579;SDS011;276;48.392;9.950;2022-11-04T14:34:26;1.67;;;1.27;;
579;SDS011;276;48.392;9.950;2022-11-04T14:36:58;1.47;;;1.13;;
579;SDS011;276;48.392;9.950;2022-11-04T14:39:37;1.70;;;1.60;;
579;SDS011;276;48.392;9.950;2022-11-04T14:42:07;3.87;;;2.23;;
579;SDS011;276;48.392;9.950;2022-11-04T14:51:56;1.50;;;1.40;;
579;SDS011;276;48.392;9.950;2022-11-04T14:54:25;2.00;;;1.00;;
579;SDS011;276;48.392;9.950;2022-11-04T14:57:15;1.10;;;1.00;;
579;SDS011;276;48.392;9.950;2022-11-04T14:59:42;2.37;;;1.10;;
579;SDS011;276;48.392;9.950;2022-11-04T15:02:23;1.30;;;1.20;;
579;SDS011;276;48.392;9.950;2022-11-04T15:04:55;3.57;;;1.67;;
579;SDS011;276;48.392;9.950;2022-11-04T15:07:23;2.10;;;1.73;;
579;SDS011;276;48.392;9.950;2022-11-04T15:09:59;2.43;;;1.60;;
579;SDS011;276;48.392;9.950;2022-11-04T15:12:29;1.20;;;1.10;;
579;SDS011;276;48.392;9.950;2022-11-04T15:20:31;1.63;;;1.53;;
579;SDS011;276;48.392;9.950;2022-11-04T15:23:02;1.40;;;1.30;;
579;SDS011;276;48.392;9.950;2022-11-04T15:25:30;3.83;;;1.97;;
579;SDS011;276;48.392;9.950;2022-11-04T15:27:58;1.90;;;1.80;;
579;SDS011;276;48.392;9.950;2022-11-04T15:30:28;4.03;;;1.90;;
579;SDS011;276;48.392;9.950;2022-11-04T15:32:57;2.33;;;2.03;;
579;SDS011;276;48.392;9.950;2022-11-04T15:35:28;2.37;;;2.13;;
579;SDS011;276;48.392;9.950;2022-11-04T15:37:58;2.30;;;2.10;;
579;SDS011;276;48.392;9.950;2022-11-04T15:40:26;2.20;;;2.00;;
579;SDS011;276;48.392;9.950;2022-11-04T15:42:55;1.87;;;1.67;;
579;SDS011;276;48.392;9.950;2022-11-04T15:50:56;2.90;;;1.90;;
579;SDS011;276;48.392;9.950;2022-11-04T15:54:05;2.90;;;1.50;;
579;SDS011;276;48.392;9.950;2022-11-04T15:56:46;1.77;;;1.30;;
579;SDS011;276;48.392;9.950;2022-11-04T15:59:21;2.27;;;1.80;;
579;SDS011;276;48.392;9.950;2022-11-04T16:01:52;1.90;;;1.70;;
579;SDS011;276;48.392;9.950;2022-11-04T16:04:19;1.93;;;1.83;;
579;SDS011;276;48.392;9.950;2022-11-04T16:09:51;2.93;;;1.83;;
579;SDS011;276;48.392;9.950;2022-11-04T16:14:53;3.70;;;2.07;;
579;SDS011;276;48.392;9.950;2022-11-04T16:17:23;2.47;;;1.80;;
579;SDS011;276;48.392;9.950;2022-11-04T16:19:53;3.73;;;1.40;;
579;SDS011;276;48.392;9.950;2022-11-04T16:22:31;4.53;;;2.20;;
579;SDS011;276;48.392;9.950;2022-11-04T16:25:04;2.27;;;1.93;;
579;SDS011;276;48.392;9.950;2022-11-04T16:27:32;2.90;;;1.30;;
579;SDS011;276;48.392;9.950;2022-11-04T16:32:46;2.30;;;1.83;;
579;SDS011;276;48.392;9.950;2022-11-04T16:35:19;2.80;;;2.10;;
579;SDS011;276;48.392;9.950;2022-11-04T16:37:49;6.00;;;3.50;;
579;SDS011;276;48.392;9.950;2022-11-04T16:40:21;3.93;;;2.53;;
579;SDS011;276;48.392;9.950;2022-11-04T16:42:47;2.77;;;2.57;;
579;SDS011;276;48.392;9.950;2022-11-04T16:45:30;3.40;;;2.70;;
579;SDS011;276;48.392;9.950;2022-11-04T16:47:58;4.80;;;3.90;;
579;SDS011;276;48.392;9.950;2022-11-04T16:50:24;8.10;;;5.37;;
579;SDS011;276;48.392;9.950;2022-11-04T16:52:50;4.87;;;3.50;;
579;SDS011;276;48.392;9.950;2022-11-04T16:55:19;3.00;;;2.20;;
579;SDS011;276;48.392;9.950;2022-11-04T16:57:57;3.43;;;2.67;;
579;SDS011;276;48.392;9.950;2022-11-04T17:00:28;3.00;;;2.80;;
579;SDS011;276;48.392;9.950;2022-11-04T17:02:58;2.37;;;2.17;;
579;SDS011;276;48.392;9.950;2022-11-04T17:05:25;2.83;;;2.63;;
579;SDS011;276;48.392;9.950;2022-11-04T17:07:53;4.40;;;2.30;;
579;SDS011;276;48.392;9.950;2022-11-04T17:10:20;3.07;;;2.70;;
579;SDS011;276;48.392;9.950;2022-11-04T17:12:50;4.63;;;3.17;;
579;SDS011;276;48.392;9.950;2022-11-04T17:15:16;3.60;;;2.90;;
579;SDS011;276;48.392;9.950;2022-11-04T17:17:44;4.50;;;4.20;;
579;SDS011;276;48.392;9.950;2022-11-04T17:20:10;5.90;;;4.17;;
579;SDS011;276;48.392;9.950;2022-11-04T17:22:44;5.17;;;4.77;;
579;SDS011;276;48.392;9.950;2022-11-04T17:25:17;5.00;;;4.43;;
579;SDS011;276;48.392;9.950;2022-11-04T17:27:48;6.50;;;5.10;;
579;SDS011;276;48.392;9.950;2022-11-04T17:30:16;4.50;;;4.10;;
579;SDS011;276;48.392;9.950;2022-11-04T17:32:45;4.60;;;4.30;;
579;SDS011;276;48.392;9.950;2022-11-04T17:35:11;4.10;;;3.77;;
579;SDS011;276;48.392;9.950;2022-11-04T17:37:41;5.57;;;5.07;;
579;SDS011;276;48.392;9.950;2022-11-04T17:40:16;5.00;;;4.50;;
579;SDS011;276;48.392;9.950;2022-11-04T17:42:42;4.33;;;4.00;;
579;SDS011;276;48.392;9.950;2022-11-04T17:45:29;5.10;;;4.60;;
579;SDS011;276;48.392;9.950;2022-11-04T17:47:55;4.90;;;4.50;;
579;SDS011;276;48.392;9.950;2022-11-04T17:50:28;7.20;;;5.83;;
579;SDS011;276;48.392;9.950;2022-11-04T17:52:57;6.13;;;5.17;;
579;SDS011;276;48.392;9.950;2022-11-04T17:55:23;7.37;;;4.43;;
579;SDS011;276;48.392;9.950;2022-11-04T17:57:48;4.30;;;3.87;;
579;SDS011;276;48.392;9.950;2022-11-04T18:00:16;6.07;;;4.17;;
579;SDS011;276;48.392;9.950;2022-11-04T18:02:43;3.87;;;3.57;;
579;SDS011;276;48.392;9.950;2022-11-04T18:05:11;3.30;;;3.00;;
579;SDS011;276;48.392;9.950;2022-11-04T18:07:37;2.57;;;2.37;;
579;SDS011;276;48.392;9.950;2022-11-04T18:10:03;2.80;;;2.57;;
579;SDS011;276;48.392;9.950;2022-11-04T18:12:29;3.20;;;2.90;;
579;SDS011;276;48.392;9.950;2022-11-04T18:15:14;2.70;;;2.50;;
579;SDS011;276;48.392;9.950;2022-11-04T18:17:43;2.20;;;2.03;;
579;SDS011;276;48.392;9.950;2022-11-04T18:20:09;3.30;;;2.30;;
579;SDS011;276;48.392;9.950;2022-11-04T18:22:39;4.13;;;2.43;;
579;SDS011;276;48.392;9.950;2022-11-04T18:25:06;3.37;;;3.17;;
579;SDS011;276;48.392;9.950;2022-11-04T18:27:32;3.87;;;3.57;;
579;SDS011;276;48.392;9.950;2022-11-04T18:30:00;5.30;;;3.90;;
579;SDS011;276;48.392;9.950;2022-11-04T18:32:26;4.57;;;4.10;;
579;SDS011;276;48.392;9.950;2022-11-04T18:34:51;4.90;;;4.10;;
579;SDS011;276;48.392;9.950;2022-11-04T18:37:17;5.00;;;4.60;;
579;SDS011;276;48.392;9.950;2022-11-04T18:39:43;6.07;;;5.57;;
579;SDS011;276;48.392;9.950;2022-11-04T18:42:11;5.27;;;4.87;;
579;SDS011;276;48.392;9.950;2022-11-04T18:44:39;4.60;;;4.20;;
579;SDS011;276;48.392;9.950;2022-11-04T18:47:07;4.97;;;4.57;;
579;SDS011;276;48.392;9.950;2022-11-04T18:49:33;4.30;;;4.00;;
579;SDS011;276;48.392;9.950;2022-11-04T18:52:01;4.83;;;4.43;;
579;SDS011;276;48.392;9.950;2022-11-04T18:54:26;4.80;;;4.40;;
579;SDS011;276;48.392;9.950;2022-11-04T18:56:54;7.23;;;6.53;;
579;SDS011;276;48.392;9.950;2022-11-04T18:59:22;8.40;;;7.60;;
579;SDS011;276;48.392;9.950;2022-11-04T19:01:52;8.60;;;7.70;;
579;SDS011;276;48.392;9.950;2022-11-04T19:04:23;7.87;;;6.60;;
579;SDS011;276;48.392;9.950;2022-11-04T19:06:48;5.17;;;4.77;;
579;SDS011;276;48.392;9.950;2022-11-04T19:09:14;6.20;;;5.60;;
579;SDS011;276;48.392;9.950;2022-11-04T19:11:40;8.23;;;7.53;;
579;SDS011;276;48.392;9.950;2022-11-04T19:14:07;8.17;;;7.47;;
579;SDS011;276;48.392;9.950;2022-11-04T19:16:38;9.37;;;8.47;;
579;SDS011;276;48.392;9.950;2022-11-04T19:19:08;10.43;;;9.37;;
579;SDS011;276;48.392;9.950;2022-11-04T19:21:39;9.03;;;8.23;;